This is the latest recevied weather packets stored in our database for station/object VK3CG. If no packets are shown the sender has not sent any weather packets the latest 10 day(s).
| Time | Temp. | Humidity | Pressure | Rain* | Wind** | Luminosity | Snow |
|---|---|---|---|---|---|---|---|
| 1777741242 | 14.44° C | 60% | 1024.7 hPa | 0.51 mm | - | 0 W/m² | - |
| 1777740339 | 15° C | 58% | 1024.6 hPa | 0 mm | - | 0 W/m² | - |
| 1777739438 | 15° C | 58% | 1024.3 hPa | 0 mm | - | 0 W/m² | - |
| 1777738539 | 15° C | 58% | 1023.9 hPa | 0 mm | - | 0 W/m² | - |
| 1777737637 | 14.44° C | 60% | 1023.8 hPa | 0 mm | - | 0 W/m² | - |
| 1777736736 | 14.44° C | 61% | 1023.9 hPa | 0 mm | - | 0 W/m² | - |
| 1777735836 | 14.44° C | 60% | 1024.1 hPa | 0 mm | - | 0 W/m² | - |
| 1777734939 | 14.44° C | 59% | 1024.3 hPa | 0 mm | - | 0 W/m² | - |
| 1777734038 | 15° C | 60% | 1024.3 hPa | 0 mm | - | 0 W/m² | - |
| 1777733130 | 14.44° C | 61% | 1024.2 hPa | 0 mm | - | 0 W/m² | - |
| 1777732228 | 14.44° C | 62% | 1024.2 hPa | 0 mm | - | 0 W/m² | - |
| 1777731332 | 14.44° C | 62% | 1024.2 hPa | 0.25 mm | - | 0 W/m² | - |
| 1777730426 | 14.44° C | 62% | 1024.6 hPa | 0.25 mm | - | 0 W/m² | - |
| 1777729522 | 14.44° C | 62% | 1025 hPa | 0.25 mm | - | 0 W/m² | - |
| 1777728620 | 14.44° C | 62% | 1025.4 hPa | 0.25 mm | - | 0 W/m² | - |
| 1777727721 | 14.44° C | 62% | 1025.6 hPa | 0 mm | - | 0 W/m² | - |
| 1777726818 | 14.44° C | 62% | 1025.7 hPa | 0 mm | - | 0 W/m² | - |
| 1777725916 | 14.44° C | 62% | 1026 hPa | 0 mm | - | 0 W/m² | - |
| 1777725015 | 15° C | 61% | 1026.2 hPa | 0 mm | - | 0 W/m² | - |
| 1777724153 | 15.56° C | 59% | 1026.6 hPa | 0 mm | - | 0 W/m² | - |
| 1777723260 | 16.11° C | 56% | 1026.8 hPa | 0 mm | - | 0 W/m² | - |
| 1777722351 | 16.67° C | 53% | 1027.1 hPa | 0 mm | - | 0 W/m² | - |
| 1777721462 | 17.22° C | 50% | 1027.2 hPa | 0 mm | - | 0 W/m² | - |
| 1777720550 | 17.78° C | 46% | 1027 hPa | 0 mm | - | 0 W/m² | - |
| 1777719650 | 18.33° C | 42% | 1026.9 hPa | 0 mm | - | 0 W/m² | - |
* Rain latest hour (hover to see other rain measurements)
** Current wind speed in m/s (hover to see current wind gust speed)